Time;durP1;ratioP1;P1;durP2;ratioP2;P2;SDS_P1;SDS_P2;PMS_P1;PMS_P2;Temp;Humidity;BMP_temperature;BMP_pressure;BME280_temperature;BME280_humidity;BME280_pressure;Samples;Min_cycle;Max_cycle;Signal;HPM_P1;HPM_P2
2022/09/17 00:01:27;;;;;;;18.60;18.00;;;12.20;99.90;13.10;101364.00;;;;5034782;28;20202;-76
2022/09/17 00:03:59;;;;;;;18.90;18.30;;;12.40;99.90;13.00;101371.00;;;;5035462;28;20188;-75
2022/09/17 00:06:29;;;;;;;19.27;18.60;;;12.40;99.90;13.20;101365.00;;;;5054404;28;20190;-75
2022/09/17 00:09:09;;;;;;;17.87;17.27;;;12.60;99.90;13.30;101369.00;;;;5054401;28;20194;-75
2022/09/17 00:11:41;;;;;;;16.57;16.07;;;12.70;99.90;13.00;101359.00;;;;5054002;28;20206;-76
2022/09/17 00:14:13;;;;;;;12.40;12.00;;;12.60;99.90;12.30;101312.00;;;;5054130;28;20206;-76
2022/09/17 00:16:48;;;;;;;11.60;11.07;;;12.20;99.90;12.10;101343.00;;;;5054275;28;20275;-76
2022/09/17 00:19:21;;;;;;;11.80;11.40;;;12.10;99.90;12.50;101345.00;;;;5034174;28;20191;-75
2022/09/17 00:21:51;;;;;;;12.27;11.87;;;12.20;99.90;12.70;101345.00;;;;5034187;28;20182;-76
2022/09/17 00:24:18;;;;;;;13.40;13.00;;;12.20;99.90;12.70;101349.00;;;;5034343;28;20212;-75
2022/09/17 00:26:47;;;;;;;13.40;13.00;;;12.30;99.90;12.40;101350.00;;;;5033904;28;20213;-76
2022/09/17 00:29:14;;;;;;;13.13;12.73;;;12.20;99.90;12.90;101361.00;;;;5033829;28;20225;-76
2022/09/17 00:31:45;;;;;;;14.37;13.97;;;12.30;99.90;12.70;101351.00;;;;5033892;28;20309;-76
2022/09/17 00:34:14;;;;;;;14.30;13.90;;;12.20;99.90;12.60;101367.00;;;;5033969;28;20192;-76
2022/09/17 00:36:43;;;;;;;15.20;14.70;;;12.20;99.90;12.90;101356.00;;;;5034365;28;20594;-76
2022/09/17 00:39:14;;;;;;;15.20;14.70;;;12.30;99.90;12.80;101372.00;;;;5034997;28;20637;-77
2022/09/17 00:41:42;;;;;;;15.50;15.00;;;12.30;99.90;13.00;101370.00;;;;5050565;28;20201;-75
2022/09/17 00:44:51;;;;;;;15.60;15.10;;;12.40;99.90;12.70;101333.00;;;;5033353;28;20277;-75
2022/09/17 00:47:37;;;;;;;17.57;12.73;;;12.50;99.90;12.80;101393.00;;;;5034201;28;20209;-75
2022/09/17 00:50:13;;;;;;;12.37;11.97;;;12.40;99.90;12.70;101386.00;;;;5017020;28;20276;-74
2022/09/17 00:52:50;;;;;;;11.90;11.50;;;12.30;99.90;12.60;101370.00;;;;5033893;28;20202;-76
2022/09/17 00:55:50;;;;;;;12.00;11.60;;;12.30;99.90;12.50;101390.00;;;;5015999;28;20196;-78
2022/09/17 00:58:27;;;;;;;13.57;13.17;;;12.30;99.90;12.70;101350.00;;;;5034785;28;20181;-82
2022/09/17 01:00:53;;;;;;;14.07;13.67;;;12.20;99.90;12.60;101393.00;;;;5016694;28;20179;-84
2022/09/17 01:03:19;;;;;;;14.90;14.40;;;12.20;99.90;12.50;101365.00;;;;5033710;28;20537;-84
2022/09/17 01:05:54;;;;;;;15.60;15.10;;;12.20;99.90;12.50;101373.00;;;;5034552;28;20180;-85
2022/09/17 01:08:56;;;;;;;15.13;14.63;;;12.10;99.90;12.50;101379.00;;;;5034420;28;20189;-81
2022/09/17 01:11:55;;;;;;;14.77;14.27;;;12.30;99.90;12.70;101389.00;;;;5031055;28;20221;-82
2022/09/17 01:14:35;;;;;;;15.93;15.43;;;12.40;99.90;12.60;101378.00;;;;5034364;28;20178;-80
2022/09/17 01:17:31;;;;;;;15.83;15.33;;;12.30;99.90;12.70;101383.00;;;;5016645;28;20549;-76
2022/09/17 01:20:14;;;;;;;15.23;14.73;;;12.30;99.90;13.10;101384.00;;;;5034147;28;20189;-76
2022/09/17 01:23:43;;;;;;;14.40;14.00;;;12.50;99.90;13.00;101390.00;;;;5034305;28;20190;-76
2022/09/17 01:26:48;;;;;;;15.17;14.67;;;12.40;99.90;13.00;101391.00;;;;4980889;28;20197;-76
2022/09/17 01:29:55;;;;;;;16.10;15.60;;;12.40;99.90;13.10;101382.00;;;;5032884;28;20672;-75
2022/09/17 01:33:29;;;;;;;16.67;16.17;;;12.50;99.90;13.10;101387.00;;;;4964453;28;20679;-75
2022/09/17 01:36:22;;;;;;;15.40;14.90;;;12.50;99.90;13.30;101360.00;;;;4983676;28;20193;-73
2022/09/17 01:39:23;;;;;;;15.10;14.60;;;12.60;99.90;13.00;101396.00;;;;5016625;28;20177;-76
2022/09/17 01:42:24;;;;;;;16.43;15.93;;;12.60;99.90;13.00;101387.00;;;;5032532;28;20203;-76
2022/09/17 01:44:50;;;;;;;14.67;14.17;;;12.50;99.90;12.60;101398.00;;;;5032835;28;20169;-80
2022/09/17 01:47:46;;;;;;;15.27;14.77;;;12.30;99.90;12.60;101387.00;;;;5032559;28;20249;-82
2022/09/17 01:50:22;;;;;;;17.30;16.80;;;12.30;99.90;12.70;101331.00;;;;5032406;28;20267;-83
2022/09/17 01:52:52;;;;;;;18.00;17.40;;;12.30;99.90;12.70;101357.00;;;;5032279;28;20248;-86
2022/09/17 01:55:21;;;;;;;18.00;17.40;;;12.30;99.90;12.60;101381.00;;;;5032251;28;20593;-81
2022/09/17 01:57:56;;;;;;;17.70;17.10;;;12.30;99.90;12.50;101349.00;;;;5032572;28;20174;-79
2022/09/17 02:00:23;;;;;;;15.10;14.60;;;12.30;99.90;12.80;101324.00;;;;5032454;28;20183;-77
2022/09/17 02:02:59;;;;;;;14.70;14.20;;;12.30;99.90;13.10;101387.00;;;;5032667;28;20188;-76
2022/09/17 02:06:14;;;;;;;14.80;14.30;;;12.40;99.90;13.00;101381.00;;;;5015663;28;20260;-75
2022/09/17 02:09:00;;;;;;;15.60;15.10;;;12.40;99.90;12.90;101391.00;;;;5019314;28;20200;-74
2022/09/17 02:11:38;;;;;;;16.40;15.90;;;12.30;99.90;12.80;101396.00;;;;5032283;28;20228;-74
2022/09/17 02:14:20;;;;;;;16.60;16.10;;;12.20;99.90;13.00;101395.00;;;;5032399;28;20629;-75
2022/09/17 02:17:15;;;;;;;17.20;16.70;;;12.20;99.90;13.40;101392.00;;;;5032319;28;20179;-74
2022/09/17 02:19:44;;;;;;;17.87;17.27;;;12.50;99.90;13.60;101385.00;;;;5032030;28;20192;-75
2022/09/17 02:22:44;;;;;;;16.27;15.77;;;12.70;99.90;12.70;101390.00;;;;5031794;28;20626;-75
2022/09/17 02:25:42;;;;;;;13.67;13.27;;;12.30;99.90;12.20;101384.00;;;;5033043;28;20743;-74
2022/09/17 02:28:50;;;;;;;14.77;14.03;;;12.00;99.90;12.50;101377.00;;;;5023698;28;20194;-74
2022/09/17 02:31:16;;;;;;;12.43;12.03;;;12.00;99.90;12.30;101385.00;;;;5032237;28;20265;-74
2022/09/17 02:33:51;;;;;;;13.50;13.10;;;11.90;99.90;12.40;101384.00;;;;5032155;28;20634;-74
2022/09/17 02:36:18;;;;;;;12.63;12.23;;;11.90;99.90;12.30;101379.00;;;;5031752;28;20193;-74
2022/09/17 02:39:07;;;;;;;12.23;11.83;;;11.90;99.90;12.40;101386.00;;;;5031802;28;20183;-74
2022/09/17 02:42:07;;;;;;;11.10;10.80;;;11.90;99.90;12.30;101391.00;;;;5031932;28;20194;-74
2022/09/17 02:45:33;;;;;;;11.40;11.10;;;11.80;99.90;12.60;101361.00;;;;5032139;28;20271;-75
2022/09/17 02:48:28;;;;;;;13.87;12.50;;;12.00;99.90;12.10;101350.00;;;;5023672;28;20241;-74
2022/09/17 02:51:05;;;;;;;9.63;9.33;;;11.90;99.90;11.60;101393.00;;;;5031682;28;20176;-76
2022/09/17 02:54:08;;;;;;;9.83;9.53;;;11.60;99.90;11.50;101389.00;;;;5031482;28;20212;-76
2022/09/17 02:57:05;;;;;;;10.57;10.27;;;11.50;99.90;12.00;101393.00;;;;5031763;28;20183;-76
2022/09/17 03:00:08;;;;;;;10.50;10.20;;;11.60;99.90;11.40;101394.00;;;;5032880;28;20183;-76
2022/09/17 03:02:46;;;;;;;10.10;9.80;;;11.40;99.90;11.40;101395.00;;;;5032915;28;20299;-76
2022/09/17 03:05:21;;;;;;;9.60;9.30;;;11.40;99.90;11.20;101385.00;;;;5032066;28;20646;-76
2022/09/17 03:07:47;;;;;;;8.83;8.53;;;11.30;99.90;11.10;101393.00;;;;5031329;28;20586;-75
2022/09/17 03:10:14;;;;;;;8.30;8.10;;;11.20;99.90;10.90;101409.00;;;;5032665;28;20195;-75
2022/09/17 03:12:40;;;;;;;7.90;7.70;;;11.10;99.90;11.10;101357.00;;;;5031315;28;20736;-74
2022/09/17 03:15:18;;;;;;;6.73;6.53;;;11.10;99.90;10.80;101382.00;;;;5031515;28;20231;-72
2022/09/17 03:17:53;;;;;;;6.67;6.47;;;10.90;99.90;10.90;101402.00;;;;5031667;28;20214;-72
2022/09/17 03:20:45;;;;;;;8.17;7.97;;;11.00;99.90;11.30;101386.00;;;;5036196;28;20167;-73
2022/09/17 03:23:14;;;;;;;7.60;7.40;;;11.10;99.90;10.90;101401.00;;;;5035611;28;20185;-74
2022/09/17 03:25:48;;;;;;;7.80;7.60;;;11.00;99.90;11.40;101394.00;;;;5036421;28;20187;-72
2022/09/17 03:28:15;;;;;;;9.00;8.70;;;11.10;99.90;11.20;101387.00;;;;5036300;28;20641;-73
2022/09/17 03:30:47;;;;;;;8.50;8.30;;;11.10;99.90;11.00;101369.00;;;;5035357;28;20628;-73
2022/09/17 03:33:13;;;;;;;8.87;8.57;;;11.00;99.90;11.20;101377.00;;;;5035991;28;20210;-73
2022/09/17 03:35:48;;;;;;;8.40;8.20;;;11.00;99.90;11.10;101322.00;;;;5036418;28;20179;-73
2022/09/17 03:38:23;;;;;;;9.43;9.13;;;11.10;99.90;11.30;101379.00;;;;5034835;28;20186;-73
2022/09/17 03:41:07;;;;;;;11.17;9.73;;;11.20;99.90;11.30;101368.00;;;;5034872;28;20209;-72
2022/09/17 03:43:34;;;;;;;9.20;8.90;;;11.10;99.90;11.30;101375.00;;;;5035059;28;20202;-72
2022/09/17 03:46:06;;;;;;;8.90;8.60;;;11.10;99.90;11.00;101351.00;;;;5034995;28;20185;-72
2022/09/17 03:48:38;;;;;;;9.27;8.87;;;11.00;99.90;11.50;101374.00;;;;5034695;28;20182;-72
2022/09/17 03:51:14;;;;;;;8.47;8.17;;;11.20;99.90;11.40;101381.00;;;;5036105;28;20167;-71
2022/09/17 03:53:46;;;;;;;9.57;9.27;;;11.20;99.90;11.10;101370.00;;;;5034524;28;20190;-72
2022/09/17 03:56:18;;;;;;;8.70;8.40;;;11.10;99.90;11.40;101363.00;;;;5034726;28;20186;-72
2022/09/17 03:58:44;;;;;;;9.03;8.73;;;11.10;99.90;11.40;101375.00;;;;5034669;28;20317;-72
2022/09/17 04:01:16;;;;;;;9.60;9.30;;;11.10;99.90;11.10;101371.00;;;;5034579;28;20211;-71
2022/09/17 04:03:42;;;;;;;10.07;9.77;;;11.20;99.90;11.30;101376.00;;;;5035336;28;20184;-71
2022/09/17 04:06:07;;;;;;;11.10;10.53;;;11.20;99.90;11.20;101387.00;;;;5034410;28;20693;-71
2022/09/17 04:08:35;;;;;;;9.90;9.60;;;11.10;99.90;11.80;101392.00;;;;5035742;28;20182;-72
2022/09/17 04:11:04;;;;;;;11.73;11.33;;;11.30;99.90;12.10;101358.00;;;;5051159;28;20582;-71
2022/09/17 04:13:32;;;;;;;12.20;11.80;;;11.50;99.90;12.40;101397.00;;;;5035615;28;20195;-71
2022/09/17 04:16:02;;;;;;;12.80;12.40;;;11.70;99.90;12.50;101400.00;;;;5035505;28;20184;-71
2022/09/17 04:18:28;;;;;;;14.60;14.00;;;11.80;99.90;12.10;101390.00;;;;5033736;28;20682;-70
2022/09/17 04:20:57;;;;;;;14.90;14.40;;;11.80;99.90;11.90;101403.00;;;;5034327;28;20181;-71
2022/09/17 04:23:28;;;;;;;14.13;13.73;;;11.50;99.90;12.40;101405.00;;;;5035370;28;20193;-72
2022/09/17 04:25:55;;;;;;;15.23;14.73;;;11.70;99.90;12.50;101361.00;;;;5035340;28;20179;-72
2022/09/17 04:28:23;;;;;;;15.00;14.50;;;11.70;99.90;12.20;101396.00;;;;5034052;28;20188;-70
2022/09/17 04:31:16;;;;;;;16.10;15.60;;;11.70;99.90;12.40;101409.00;;;;5017440;28;20232;-71
2022/09/17 04:33:50;;;;;;;16.40;15.90;;;11.70;99.90;12.50;101409.00;;;;4996559;28;20210;-71
2022/09/17 04:36:16;;;;;;;14.40;14.00;;;11.70;99.90;12.60;101390.00;;;;5033977;28;20184;-71
2022/09/17 04:38:57;;;;;;;14.10;13.70;;;11.90;99.90;12.50;101397.00;;;;5017427;28;20742;-71
2022/09/17 04:41:26;;;;;;;13.33;12.93;;;11.90;99.90;12.40;101382.00;;;;5017588;28;20630;-71
2022/09/17 04:43:51;;;;;;;14.77;14.27;;;12.00;99.90;12.20;101389.00;;;;5014457;28;20634;-72
2022/09/17 04:46:26;;;;;;;14.67;14.17;;;11.80;99.90;11.60;101341.00;;;;5033801;28;20230;-71
2022/09/17 04:48:52;;;;;;;12.03;11.63;;;11.60;99.90;11.30;101383.00;;;;5033809;28;20178;-71
2022/09/17 04:51:23;;;;;;;12.83;12.43;;;11.30;99.90;11.40;101405.00;;;;5034845;28;20207;-71
2022/09/17 04:53:52;;;;;;;13.23;12.83;;;11.10;99.90;12.00;101414.00;;;;5034752;28;20638;-70
2022/09/17 04:56:20;;;;;;;14.73;14.27;;;11.40;99.90;12.00;101435.00;;;;5033652;28;20183;-72
2022/09/17 04:58:46;;;;;;;15.33;14.83;;;11.50;99.90;12.40;101420.00;;;;5016902;28;20180;-71
2022/09/17 05:01:13;;;;;;;16.60;16.10;;;11.70;99.90;12.60;101436.00;;;;5034428;28;20202;-73
2022/09/17 05:03:39;;;;;;;16.80;16.30;;;11.80;99.90;12.80;101449.00;;;;5033536;28;20541;-73
2022/09/17 05:06:11;;;;;;;16.90;16.40;;;11.90;99.90;12.20;101435.00;;;;5034401;28;20181;-73
2022/09/17 05:08:37;;;;;;;13.77;13.37;;;11.80;99.90;12.00;101448.00;;;;5033587;28;20178;-73
2022/09/17 05:11:03;;;;;;;20.43;14.10;;;11.70;99.90;12.00;101440.00;;;;5033260;28;20242;-73
2022/09/17 05:13:32;;;;;;;13.10;12.70;;;11.70;99.90;12.00;101415.00;;;;5033181;28;20217;-73
2022/09/17 05:16:04;;;;;;;14.73;14.23;;;11.70;99.90;12.50;101431.00;;;;5015962;28;20333;-74
2022/09/17 05:18:36;;;;;;;15.63;15.13;;;11.70;99.90;12.80;101437.00;;;;5033074;28;20185;-71
2022/09/17 05:21:02;;;;;;;14.83;14.33;;;12.00;99.90;12.80;101428.00;;;;5034187;28;20268;-73
2022/09/17 05:23:30;;;;;;;15.07;13.20;;;12.10;99.90;12.40;101399.00;;;;5048381;28;20241;-71
2022/09/17 05:26:08;;;;;;;11.90;11.50;;;12.00;99.90;11.50;101428.00;;;;5052809;28;20194;-72
2022/09/17 05:28:34;;;;;;;10.40;10.10;;;11.50;99.90;11.50;101431.00;;;;5052617;28;20185;-71
2022/09/17 05:31:01;;;;;;;10.23;9.93;;;11.50;99.90;11.70;101413.00;;;;5053735;28;20187;-73
2022/09/17 05:33:31;;;;;;;9.60;9.30;;;11.40;99.90;11.60;101439.00;;;;5052681;28;20226;-72
2022/09/17 05:35:59;;;;;;;9.10;8.70;;;11.40;99.90;11.70;101420.00;;;;5052468;28;20263;-73
2022/09/17 05:38:25;;;;;;;8.83;8.53;;;11.50;99.90;12.00;101387.00;;;;5052902;28;20239;-73
2022/09/17 05:40:55;;;;;;;9.00;8.70;;;11.60;99.90;11.80;101410.00;;;;5052235;28;20662;-73
2022/09/17 05:43:21;;;;;;;10.00;9.70;;;11.60;99.90;12.20;101426.00;;;;5054106;28;20178;-72
2022/09/17 05:45:53;;;;;;;10.93;10.63;;;11.70;99.90;12.70;101373.00;;;;5052055;28;20684;-72
2022/09/17 05:48:19;;;;;;;12.07;11.67;;;11.80;99.90;12.60;101431.00;;;;5052736;28;20193;-72
2022/09/17 05:50:57;;;;;;;14.30;13.90;;;12.00;99.90;12.40;101426.00;;;;5052633;28;20177;-72
2022/09/17 05:53:23;;;;;;;14.07;13.67;;;11.90;99.90;12.70;101388.00;;;;5052554;28;20682;-73
2022/09/17 05:56:01;;;;;;;15.03;14.53;;;12.00;99.90;12.70;101434.00;;;;5052345;28;20189;-72
2022/09/17 05:59:38;;;;;;;16.37;15.87;;;12.10;99.90;13.10;101428.00;;;;5053158;28;20182;-72
2022/09/17 06:02:12;;;;;;;15.53;15.03;;;12.20;99.90;12.70;101432.00;;;;5031612;28;20194;-72
2022/09/17 06:05:00;;;;;;;13.73;13.33;;;12.40;99.90;13.20;101442.00;;;;5052246;28;20274;-72
2022/09/17 06:07:27;;;;;;;13.87;13.47;;;12.50;99.90;13.20;101446.00;;;;5052414;28;20185;-72
2022/09/17 06:10:14;;;;;;;12.30;11.90;;;12.50;99.90;13.50;101442.00;;;;5052386;28;20180;-72
2022/09/17 06:12:59;;;;;;;13.23;12.83;;;12.80;99.90;13.40;101438.00;;;;5053018;28;20217;-72
2022/09/17 06:15:27;;;;;;;12.70;12.30;;;12.90;99.90;13.90;101411.00;;;;5051987;28;20205;-72
2022/09/17 06:18:29;;;;;;;13.67;13.17;;;13.10;99.90;13.20;101442.00;;;;5035492;28;20182;-72
2022/09/17 06:21:45;;;;;;;12.73;12.33;;;13.00;99.90;13.00;101450.00;;;;5051800;28;20201;-72
2022/09/17 06:24:16;;;;;;;11.57;11.27;;;12.80;99.90;13.30;101446.00;;;;5045024;28;20210;-72
2022/09/17 06:26:45;;;;;;;11.60;11.27;;;12.80;99.90;13.70;101440.00;;;;5051966;28;20170;-72
2022/09/17 06:29:13;;;;;;;13.50;13.10;;;13.00;99.90;13.30;101411.00;;;;5035482;28;20183;-72
2022/09/17 06:31:46;;;;;;;12.20;11.70;;;13.10;99.90;14.20;101462.00;;;;5051907;28;20222;-72
2022/09/17 06:34:14;;;;;;;12.97;12.57;;;13.40;99.90;14.30;101481.00;;;;5051969;28;20585;-72
2022/09/17 06:36:45;;;;;;;15.50;15.00;;;13.60;99.90;13.90;101475.00;;;;5052182;28;20180;-72
2022/09/17 06:39:12;;;;;;;14.37;13.97;;;13.50;99.90;13.20;101457.00;;;;5035448;28;20586;-75
2022/09/17 06:41:52;;;;;;;10.43;10.13;;;13.20;99.90;12.80;101457.00;;;;5053303;28;20269;-73
2022/09/17 06:44:24;;;;;;;8.30;8.10;;;12.70;99.90;12.60;101464.00;;;;5051576;28;20637;-73
2022/09/17 06:46:50;;;;;;;9.10;8.80;;;12.50;99.90;13.20;101457.00;;;;5054708;28;20179;-73
2022/09/17 06:49:17;;;;;;;9.10;8.80;;;12.70;99.90;13.30;101444.00;;;;5043474;28;20195;-75
2022/09/17 06:51:48;;;;;;;8.73;8.43;;;12.90;99.90;12.80;101441.00;;;;5035142;28;20559;-72
2022/09/17 06:54:14;;;;;;;8.17;7.60;;;12.80;99.90;12.80;101468.00;;;;5037722;28;20195;-72
2022/09/17 06:56:41;;;;;;;6.60;6.40;;;12.70;99.90;13.00;101461.00;;;;5056868;28;20182;-71
2022/09/17 06:59:10;;;;;;;6.10;5.90;;;12.80;99.90;12.90;101463.00;;;;5055694;28;20175;-72
2022/09/17 07:01:36;;;;;;;7.10;6.90;;;12.80;99.90;13.10;101453.00;;;;5038597;28;20224;-71
2022/09/17 07:04:02;;;;;;;7.40;7.20;;;12.70;99.90;12.90;101469.00;;;;5055693;28;20225;-72
2022/09/17 07:06:48;;;;;;;5.80;5.60;;;12.80;99.90;12.70;101455.00;;;;5055584;28;20197;-72
2022/09/17 07:09:14;;;;;;;5.97;5.77;;;12.60;99.90;12.60;101456.00;;;;5055593;28;20226;-72
2022/09/17 07:11:40;;;;;;;4.40;4.30;;;12.60;99.90;12.30;101462.00;;;;5056181;28;20754;-71
2022/09/17 07:14:06;;;;;;;4.57;4.47;;;12.50;99.90;12.50;101455.00;;;;5018920;28;20190;-73
2022/09/17 07:16:34;;;;;;;6.43;6.13;;;12.50;99.90;13.10;101468.00;;;;5036770;28;20312;-72
2022/09/17 07:19:04;;;;;;;5.20;5.10;;;12.70;99.90;13.10;101463.00;;;;5035684;28;20167;-72
2022/09/17 07:21:33;;;;;;;5.70;5.50;;;12.90;99.90;13.40;101467.00;;;;5036895;28;20195;-71
2022/09/17 07:23:59;;;;;;;8.90;6.57;;;13.10;99.90;13.60;101456.00;;;;5046226;28;20190;-72
2022/09/17 07:26:25;;;;;;;6.23;6.03;;;13.40;99.90;13.40;101479.00;;;;5056098;28;20286;-72
2022/09/17 07:29:17;;;;;;;4.50;4.40;;;13.30;99.90;12.70;101473.00;;;;5056159;28;20686;-72
2022/09/17 07:31:45;;;;;;;4.90;4.80;;;12.80;99.90;13.20;101478.00;;;;5044529;28;20215;-72
2022/09/17 07:34:15;;;;;;;5.80;5.60;;;12.80;99.90;13.50;101474.00;;;;5055479;28;20166;-72
2022/09/17 07:36:43;;;;;;;6.90;6.70;;;13.00;99.90;13.90;101448.00;;;;5054942;28;20187;-72
2022/09/17 07:39:11;;;;;;;10.03;9.73;;;13.20;99.90;13.90;101492.00;;;;5055227;28;20237;-71
2022/09/17 07:41:38;;;;;;;10.10;9.80;;;13.30;99.90;14.20;101493.00;;;;5054627;28;20158;-72
2022/09/17 07:44:08;;;;;;;11.23;10.93;;;13.50;99.90;14.30;101479.00;;;;5054857;28;20192;-73
2022/09/17 07:46:35;;;;;;;10.93;10.63;;;13.50;99.90;14.40;101494.00;;;;5056135;28;20176;-73
2022/09/17 07:49:01;;;;;;;11.87;11.47;;;13.70;99.90;14.00;101486.00;;;;5071435;28;20269;-73
2022/09/17 07:51:27;;;;;;;12.13;11.73;;;13.50;99.90;14.00;101494.00;;;;5038131;28;20195;-72
2022/09/17 07:53:58;;;;;;;10.40;10.10;;;13.50;99.90;13.60;101478.00;;;;5054798;28;20176;-72
2022/09/17 07:56:28;;;;;;;12.73;12.33;;;13.40;99.90;13.60;101484.00;;;;5054732;28;20171;-72
2022/09/17 07:58:55;;;;;;;11.40;11.10;;;13.30;99.90;13.70;101466.00;;;;5054617;28;20160;-72
2022/09/17 08:01:21;;;;;;;9.37;9.07;;;13.30;99.90;14.70;101487.00;;;;5055742;28;20218;-72
2022/09/17 08:03:53;;;;;;;10.40;10.10;;;13.90;99.90;16.10;101482.00;;;;5055478;28;20284;-71
2022/09/17 08:06:24;;;;;;;13.00;12.60;;;14.90;99.90;16.70;101485.00;;;;5054257;28;20221;-72
2022/09/17 08:09:11;;;;;;;16.53;16.03;;;15.60;99.90;17.30;101486.00;;;;5053929;28;20237;-72
2022/09/17 08:11:37;;;;;;;20.73;20.03;;;16.20;99.90;17.80;101491.00;;;;5054576;28;20230;-72
2022/09/17 08:14:03;;;;;;;22.60;21.90;;;16.70;99.90;17.10;101494.00;;;;5037486;28;20189;-72
2022/09/17 08:16:37;;;;;;;7.40;7.20;;;16.50;99.90;15.50;101489.00;;;;5054410;28;20268;-72
2022/09/17 08:19:03;;;;;;;5.43;3.60;;;15.70;99.90;14.50;101481.00;;;;5055847;28;20209;-69
2022/09/17 08:21:29;;;;;;;5.60;5.40;;;14.90;99.90;15.00;101485.00;;;;5055336;28;20209;-72
2022/09/17 08:23:58;;;;;;;6.23;6.03;;;14.60;99.90;15.00;101495.00;;;;5053732;28;20190;-73
2022/09/17 08:26:29;;;;;;;7.80;7.60;;;14.60;99.90;15.70;101500.00;;;;5053454;28;20209;-71
2022/09/17 08:28:57;;;;;;;7.30;7.10;;;14.90;99.90;15.20;101456.00;;;;5053138;28;20187;-72
2022/09/17 08:31:44;;;;;;;5.83;5.63;;;14.80;99.90;14.60;101517.00;;;;5054318;28;20305;-72
2022/09/17 08:34:48;;;;;;;6.80;6.60;;;14.50;99.90;14.60;101497.00;;;;5053314;28;20196;-72
2022/09/17 08:37:42;;;;;;;7.70;7.37;;;14.20;99.90;14.60;101509.00;;;;5037355;28;20261;-73
2022/09/17 08:40:57;;;;;;;8.20;8.00;;;14.20;99.90;14.60;101518.00;;;;5013335;28;20544;-71
2022/09/17 08:43:24;;;;;;;9.60;9.30;;;14.10;99.90;15.10;101521.00;;;;5053769;28;20209;-72
2022/09/17 08:45:55;;;;;;;9.40;9.10;;;14.20;99.90;15.90;101526.00;;;;5053536;28;20181;-73
2022/09/17 08:48:24;;;;;;;10.00;9.70;;;14.80;99.90;16.10;101515.00;;;;5070170;28;20189;-72
2022/09/17 08:51:01;;;;;;;11.23;10.87;;;15.20;99.90;16.50;101519.00;;;;5044919;28;20201;-72
2022/09/17 08:53:58;;;;;;;13.20;12.80;;;15.60;99.90;17.60;101524.00;;;;5053472;28;20180;-70
2022/09/17 08:56:36;;;;;;;16.37;15.87;;;16.50;99.90;18.30;101530.00;;;;5055105;28;20212;-71
2022/09/17 08:59:37;;;;;;;18.23;17.63;;;17.30;99.90;17.70;101500.00;;;;5053748;28;20165;-72
2022/09/17 09:02:35;;;;;;;16.77;16.27;;;17.20;99.90;17.80;101553.00;;;;5043550;28;20233;-71
2022/09/17 09:05:14;;;;;;;11.27;10.97;;;17.10;99.90;18.10;101548.00;;;;5046967;28;20338;-70
2022/09/17 09:08:07;;;;;;;12.80;12.40;;;17.30;99.90;18.70;101550.00;;;;5053123;28;20519;-72
2022/09/17 09:10:55;;;;;;;4.70;4.60;;;17.80;99.90;18.20;101571.00;;;;5036179;28;20656;-73
2022/09/17 09:13:31;;;;;;;1.77;1.77;;;17.80;99.90;15.40;101492.00;;;;5053250;28;20187;-69
2022/09/17 09:16:18;;;;;;;3.87;3.67;;;16.10;99.90;15.70;101516.00;;;;5053822;28;20178;-72
2022/09/17 09:19:28;;;;;;;5.37;4.83;;;15.60;99.90;14.50;101532.00;;;;5052912;28;20181;-71
2022/09/17 09:22:05;;;;;;;5.43;5.33;;;14.70;99.90;14.60;101546.00;;;;5052909;28;20221;-72
2022/09/17 09:25:21;;;;;;;7.60;7.40;;;14.30;99.90;14.50;101537.00;;;;5069884;28;20181;-71
2022/09/17 09:28:02;;;;;;;7.70;7.50;;;14.10;99.90;14.20;101504.00;;;;5036370;28;20192;-72
2022/09/17 09:31:20;;;;;;;12.60;12.20;;;14.00;99.90;14.20;101521.00;;;;5054143;28;20227;-72
2022/09/17 09:34:47;;;;;;;12.83;12.43;;;13.90;99.90;15.10;101538.00;;;;5069033;28;20300;-72
2022/09/17 09:37:30;;;;;;;11.27;10.93;;;14.10;99.90;15.20;101533.00;;;;5052827;28;20273;-72
2022/09/17 09:40:29;;;;;;;11.40;11.00;;;14.70;99.90;16.00;101525.00;;;;5052784;28;20632;-70
2022/09/17 09:43:03;;;;;;;13.20;12.80;;;15.40;99.90;16.00;101531.00;;;;5023639;28;20241;-70
2022/09/17 09:45:54;;;;;;;13.60;13.20;;;15.60;99.90;16.30;101542.00;;;;5052501;28;20183;-70
2022/09/17 09:49:08;;;;;;;19.20;18.47;;;15.80;99.90;15.10;101526.00;;;;5069833;28;20187;-72
2022/09/17 09:52:00;;;;;;;10.27;9.97;;;15.20;99.90;14.30;101529.00;;;;5044705;28;20201;-72
2022/09/17 09:54:40;;;;;;;12.60;12.20;;;14.40;99.90;14.30;101546.00;;;;5069468;28;20192;-72
2022/09/17 09:57:13;;;;;;;11.43;11.13;;;14.00;99.90;14.20;101541.00;;;;5052553;28;20209;-73
2022/09/17 10:00:21;;;;;;;13.47;13.07;;;13.80;99.90;14.10;101544.00;;;;5052556;28;20171;-72
2022/09/17 10:02:52;;;;;;;12.43;12.03;;;13.60;99.90;13.90;101551.00;;;;5034332;28;20208;-71
2022/09/17 10:05:36;;;;;;;12.00;11.60;;;13.60;99.90;14.50;101525.00;;;;5058288;28;20193;-72
2022/09/17 10:08:25;;;;;;;11.83;11.43;;;13.80;99.90;15.00;101552.00;;;;5033965;28;20552;-71
2022/09/17 10:11:04;;;;;;;11.87;11.47;;;14.10;99.90;15.70;101549.00;;;;5050727;28;20652;-70
2022/09/17 10:13:42;;;;;;;12.60;12.20;;;14.60;99.90;16.30;101521.00;;;;5069261;28;20633;-69
2022/09/17 10:16:42;;;;;;;12.90;12.50;;;15.20;99.90;15.90;101551.00;;;;5051913;28;20591;-69
2022/09/17 10:19:08;;;;;;;16.60;16.10;;;15.50;99.90;16.10;101550.00;;;;5052644;28;20198;-68
2022/09/17 10:33:30;;;;;;;6.13;5.93;;;14.60;99.90;15.00;101499.00;;;;5059571;28;20546;-68
2022/09/17 10:36:11;;;;;;;7.37;7.17;;;14.70;99.90;15.10;101533.00;;;;5047341;28;20182;-68
2022/09/17 10:38:44;;;;;;;7.30;7.10;;;14.80;99.90;15.30;101550.00;;;;5029441;28;20187;-68
2022/09/17 10:41:23;;;;;;;9.83;9.53;;;14.90;99.90;15.30;101559.00;;;;5026079;28;20211;-68
2022/09/17 10:44:20;;;;;;;11.73;10.80;;;15.00;99.90;14.60;101566.00;;;;5025771;28;20275;-69
2022/09/17 10:47:18;;;;;;;8.70;8.30;;;14.70;99.90;14.10;101571.00;;;;4993182;28;20276;-68
2022/09/17 10:50:17;;;;;;;8.97;8.67;;;14.00;99.90;13.90;101568.00;;;;5025212;28;20227;-68
2022/09/17 10:53:03;;;;;;;8.63;8.33;;;13.80;99.90;13.40;101525.00;;;;5010637;28;20220;-69
2022/09/17 10:56:04;;;;;;;8.10;7.90;;;13.50;99.90;13.60;101574.00;;;;5026030;28;20191;-70
2022/09/17 10:58:42;;;;;;;8.93;8.63;;;13.40;99.90;14.10;101578.00;;;;5010453;28;20215;-70
2022/09/17 11:01:39;;;;;;;9.07;8.77;;;13.50;99.90;14.60;101558.00;;;;5010269;28;20181;-69
2022/09/17 11:04:25;;;;;;;9.60;9.30;;;13.80;99.90;14.70;101559.00;;;;5010116;28;20186;-69
2022/09/17 11:07:24;;;;;;;10.17;9.87;;;13.90;99.90;15.20;101571.00;;;;5010282;28;20197;-69
2022/09/17 11:10:04;;;;;;;9.40;9.10;;;14.30;99.90;15.80;101569.00;;;;5025660;28;20194;-69
2022/09/17 11:12:36;;;;;;;10.00;9.70;;;14.90;99.90;16.20;101565.00;;;;5042182;28;20746;-69
2022/09/17 11:15:46;;;;;;;12.10;11.70;;;15.30;99.90;16.10;101569.00;;;;5010893;28;20186;-68
2022/09/17 11:18:26;;;;;;;11.50;11.20;;;15.80;99.90;15.90;101565.00;;;;5009832;28;20177;-69
2022/09/17 11:21:20;;;;;;;12.73;12.27;;;15.50;99.90;15.40;101560.00;;;;5010573;28;20291;-69
2022/09/17 11:24:23;;;;;;;12.80;9.33;;;15.50;99.90;15.10;101542.00;;;;5010064;28;20179;-68
2022/09/17 11:26:55;;;;;;;7.23;6.93;;;15.10;99.90;14.20;101541.00;;;;5010380;28;20183;-68
2022/09/17 11:30:07;;;;;;;6.40;6.20;;;14.40;99.90;15.10;101540.00;;;;5025521;28;20239;-68
2022/09/17 11:33:00;;;;;;;6.30;6.10;;;14.60;99.90;14.40;101530.00;;;;5008218;28;20675;-69
2022/09/17 11:36:30;;;;;;;8.80;8.50;;;14.40;99.90;15.30;101531.00;;;;5025227;28;20201;-68
2022/09/17 11:39:56;;;;;;;10.70;10.40;;;14.70;99.90;17.10;101540.00;;;;5056422;28;20197;-69
2022/09/17 11:42:52;;;;;;;13.37;12.97;;;15.90;99.90;17.60;101536.00;;;;5009416;28;20196;-68